Emerald Princess — ZCDP8 — position and weather

sailwx.info

Track history (hours):
 
Tides and Currents Weather Stations Pressure Air Temp Water Temp Dewpoint Dewpoint Depression Visibility Wind Speed Wind Dir Waves Ship Positions

Emerald Princess

Last reported at 2019-Dec-05 09:00 UTC. Time now 2019-Dec-12 09:21 UTC.
Position N 24°54' W 113°06'.

Type: Ship. MMSI: 310531000.

Wind from 320 at 5 knots

Barometer 1015.7 mb
Air temperature 21.0 ° C
Visibility: greater than 10.8 NM
Dewpoint 20.3 ° C
Water temperature 22.0 ° C

Date/timePositionNaut miles runAvg speedWind from/ knotsBaromVisibWave heightAir tempDewpointWater temp
2019-Dec-05 09:00N 24°54' W 113°06'48019.5 320 / 51015.710.8 21.020.322.0
2019-Dec-04 08:25N 31°54' W 117°30'3618.9
2019-Dec-04 06:30N 32°28' W 117°43'1918.7
2019-Dec-04 05:30N 32°46' W 117°52'1019.3
2019-Dec-04 05:00N 32°55' W 117°56'1919.1
2019-Dec-04 04:00N 33°12' W 118°04'1019.2
2019-Dec-04 03:30N 33°22' W 118°07'1716.9
2019-Dec-04 02:30N 33°38' W 118°14'510.2
2019-Dec-04 02:01N 33°43' W 118°15'3 1.8
2019-Dec-04 00:30N 33°45' W 118°17'0 0.0
2019-Dec-03 23:29N 33°45' W 118°17'0 0.0
2019-Dec-03 21:29N 33°45' W 118°17'0 0.0
2019-Dec-03 20:58N 33°45' W 118°17'0 0.0
2019-Dec-03 20:28N 33°45' W 118°17'0 0.0
2019-Dec-03 19:58N 33°45' W 118°17'0 0.0
2019-Dec-03 17:00N 33°45' W 118°17'0 0.0
2019-Dec-03 14:59N 33°45' W 118°17'1 0.4
2019-Dec-03 13:30N 33°44' W 118°17'2311.4
2019-Dec-03 11:30N 33°24' W 118°05'2914.4
2019-Dec-03 09:31N 32°57' W 117°52'815.1
2019-Dec-03 09:01N 32°50' W 117°50'815.1
2019-Dec-03 08:31N 32°43' W 117°47'1414.4
2019-Dec-03 07:31N 32°29' W 117°41'1514.7
2019-Dec-03 06:31N 32°15' W 117°35'1515.4
2019-Dec-03 05:31N 32°01' W 117°29'1817.6
2019-Dec-03 04:31N 31°44' W 117°23'12817.1
2019-Dec-02 21:00N 29°42' W 116°36'   010 / 91023.6 5.4 18.510.818.0
2019-Nov-28 09:00N 15°30' W 095°06'42417.7 350 / 141011.610.8 28.024.626.0
2019-Nov-27 09:00N 12°18' W 088°36'285 5.9 350 / 131008.4 5.4 28.525.129.0
2019-Nov-25 09:00N 09°30' W 084°42'   040 / 41006.4 5.4 27.025.028.0
Track history (hours):
 
Tides and Currents Weather Stations Pressure Air Temp Water Temp Dewpoint Dewpoint Depression Visibility Wind Speed Wind Dir Waves Ship Positions

Emerald Princess

Last reported at 2019-Dec-05 09:00 UTC. Time now 2019-Dec-12 09:21 UTC.
Position N 24°54' W 113°06'.

Type: Ship. MMSI: 310531000.

Wind from 320 at 5 knots

Barometer 1015.7 mb
Air temperature 21.0 ° C
Visibility: greater than 10.8 NM
Dewpoint 20.3 ° C
Water temperature 22.0 ° C

Date/timePositionNaut miles runAvg speedWind from/ knotsBaromVisibWave heightAir tempDewpointWater temp
2019-Dec-05 09:00N 24°54' W 113°06'48019.5 320 / 51015.710.8 21.020.322.0
2019-Dec-04 08:25N 31°54' W 117°30'3618.9
2019-Dec-04 06:30N 32°28' W 117°43'1918.7
2019-Dec-04 05:30N 32°46' W 117°52'1019.3
2019-Dec-04 05:00N 32°55' W 117°56'1919.1
2019-Dec-04 04:00N 33°12' W 118°04'1019.2
2019-Dec-04 03:30N 33°22' W 118°07'1716.9
2019-Dec-04 02:30N 33°38' W 118°14'510.2
2019-Dec-04 02:01N 33°43' W 118°15'3 1.8
2019-Dec-04 00:30N 33°45' W 118°17'0 0.0
2019-Dec-03 23:29N 33°45' W 118°17'0 0.0
2019-Dec-03 21:29N 33°45' W 118°17'0 0.0
2019-Dec-03 20:58N 33°45' W 118°17'0 0.0
2019-Dec-03 20:28N 33°45' W 118°17'0 0.0
2019-Dec-03 19:58N 33°45' W 118°17'0 0.0
2019-Dec-03 17:00N 33°45' W 118°17'0 0.0
2019-Dec-03 14:59N 33°45' W 118°17'1 0.4
2019-Dec-03 13:30N 33°44' W 118°17'2311.4
2019-Dec-03 11:30N 33°24' W 118°05'2914.4
2019-Dec-03 09:31N 32°57' W 117°52'815.1
2019-Dec-03 09:01N 32°50' W 117°50'815.1
2019-Dec-03 08:31N 32°43' W 117°47'1414.4
2019-Dec-03 07:31N 32°29' W 117°41'1514.7
2019-Dec-03 06:31N 32°15' W 117°35'1515.4
2019-Dec-03 05:31N 32°01' W 117°29'1817.6
2019-Dec-03 04:31N 31°44' W 117°23'12817.1
2019-Dec-02 21:00N 29°42' W 116°36'   010 / 91023.6 5.4 18.510.818.0
2019-Nov-28 09:00N 15°30' W 095°06'42417.7 350 / 141011.610.8 28.024.626.0
2019-Nov-27 09:00N 12°18' W 088°36'285 5.9 350 / 131008.4 5.4 28.525.129.0
2019-Nov-25 09:00N 09°30' W 084°42'   040 / 41006.4 5.4 27.025.028.0

Dump ship's entire track history